sensor_id;sensor_type;location;lat;lon;timestamp;temperature;humidity
39045;DHT22;52192;52.002;5.956;2023-08-08T00:01:03;17.00;80.40
39045;DHT22;52192;52.002;5.956;2023-08-08T00:03:29;17.00;80.50
39045;DHT22;52192;52.002;5.956;2023-08-08T00:05:54;17.00;80.60
39045;DHT22;52192;52.002;5.956;2023-08-08T00:08:20;16.90;80.70
39045;DHT22;52192;52.002;5.956;2023-08-08T00:10:45;16.90;80.70
39045;DHT22;52192;52.002;5.956;2023-08-08T00:13:11;16.90;80.70
39045;DHT22;52192;52.002;5.956;2023-08-08T00:15:37;16.90;80.80
39045;DHT22;52192;52.002;5.956;2023-08-08T00:18:03;16.90;80.80
39045;DHT22;52192;52.002;5.956;2023-08-08T00:20:28;16.90;80.80
39045;DHT22;52192;52.002;5.956;2023-08-08T00:22:54;16.90;80.70
39045;DHT22;52192;52.002;5.956;2023-08-08T00:25:20;16.90;80.80
39045;DHT22;52192;52.002;5.956;2023-08-08T00:27:45;16.90;80.90
39045;DHT22;52192;52.002;5.956;2023-08-08T00:30:12;16.90;80.90
39045;DHT22;52192;52.002;5.956;2023-08-08T00:32:40;16.90;81.00
39045;DHT22;52192;52.002;5.956;2023-08-08T00:35:06;16.90;81.10
39045;DHT22;52192;52.002;5.956;2023-08-08T00:37:32;16.90;81.10
39045;DHT22;52192;52.002;5.956;2023-08-08T00:39:58;16.90;81.20
39045;DHT22;52192;52.002;5.956;2023-08-08T00:42:24;16.90;81.70
39045;DHT22;52192;52.002;5.956;2023-08-08T00:44:49;16.90;81.20
39045;DHT22;52192;52.002;5.956;2023-08-08T00:47:15;16.90;81.20
39045;DHT22;52192;52.002;5.956;2023-08-08T00:49:41;16.90;81.20
39045;DHT22;52192;52.002;5.956;2023-08-08T00:52:09;16.90;81.40
39045;DHT22;52192;52.002;5.956;2023-08-08T00:54:35;16.90;81.50
39045;DHT22;52192;52.002;5.956;2023-08-08T00:57:00;16.80;81.60
39045;DHT22;52192;52.002;5.956;2023-08-08T00:59:27;16.80;81.70
39045;DHT22;52192;52.002;5.956;2023-08-08T01:01:53;16.80;81.70
39045;DHT22;52192;52.002;5.956;2023-08-08T01:04:19;16.80;81.70
39045;DHT22;52192;52.002;5.956;2023-08-08T01:07:15;16.80;81.70
39045;DHT22;52192;52.002;5.956;2023-08-08T01:09:48;16.90;81.70
39045;DHT22;52192;52.002;5.956;2023-08-08T01:12:17;16.90;81.70
39045;DHT22;52192;52.002;5.956;2023-08-08T01:14:43;16.90;81.80
39045;DHT22;52192;52.002;5.956;2023-08-08T01:17:10;16.90;81.70
39045;DHT22;52192;52.002;5.956;2023-08-08T01:19:37;16.90;82.20
39045;DHT22;52192;52.002;5.956;2023-08-08T01:22:06;16.90;81.70
39045;DHT22;52192;52.002;5.956;2023-08-08T01:24:33;16.80;81.80
39045;DHT22;52192;52.002;5.956;2023-08-08T01:27:03;16.80;81.90
39045;DHT22;52192;52.002;5.956;2023-08-08T01:29:29;16.80;82.10
39045;DHT22;52192;52.002;5.956;2023-08-08T01:31:55;16.80;82.20
39045;DHT22;52192;52.002;5.956;2023-08-08T01:34:21;16.80;82.20
39045;DHT22;52192;52.002;5.956;2023-08-08T01:37:09;16.80;82.20
39045;DHT22;52192;52.002;5.956;2023-08-08T01:39:38;16.80;82.10
39045;DHT22;52192;52.002;5.956;2023-08-08T01:42:05;16.80;82.30
39045;DHT22;52192;52.002;5.956;2023-08-08T01:44:31;16.70;82.50
39045;DHT22;52192;52.002;5.956;2023-08-08T01:46:58;16.70;82.50
39045;DHT22;52192;52.002;5.956;2023-08-08T01:49:24;16.70;82.60
39045;DHT22;52192;52.002;5.956;2023-08-08T01:51:49;16.70;82.60
39045;DHT22;52192;52.002;5.956;2023-08-08T01:54:16;16.70;82.60
39045;DHT22;52192;52.002;5.956;2023-08-08T01:56:42;16.70;82.70
39045;DHT22;52192;52.002;5.956;2023-08-08T01:59:07;16.80;82.60
39045;DHT22;52192;52.002;5.956;2023-08-08T02:01:33;16.80;82.50
39045;DHT22;52192;52.002;5.956;2023-08-08T02:03:59;16.80;82.60
39045;DHT22;52192;52.002;5.956;2023-08-08T02:06:24;16.80;82.60
39045;DHT22;52192;52.002;5.956;2023-08-08T02:08:50;16.80;82.60
39045;DHT22;52192;52.002;5.956;2023-08-08T02:11:15;16.80;82.60
39045;DHT22;52192;52.002;5.956;2023-08-08T02:13:41;16.80;82.60
39045;DHT22;52192;52.002;5.956;2023-08-08T02:16:07;16.80;82.70
39045;DHT22;52192;52.002;5.956;2023-08-08T02:18:32;16.80;82.70
39045;DHT22;52192;52.002;5.956;2023-08-08T02:20:58;16.80;82.60
39045;DHT22;52192;52.002;5.956;2023-08-08T02:23:24;16.80;82.60
39045;DHT22;52192;52.002;5.956;2023-08-08T02:25:49;16.80;82.60
39045;DHT22;52192;52.002;5.956;2023-08-08T02:28:18;16.80;82.60
39045;DHT22;52192;52.002;5.956;2023-08-08T02:30:44;16.80;82.70
39045;DHT22;52192;52.002;5.956;2023-08-08T02:33:10;16.80;82.70
39045;DHT22;52192;52.002;5.956;2023-08-08T02:35:36;16.80;82.80
39045;DHT22;52192;52.002;5.956;2023-08-08T02:38:03;16.70;82.80
39045;DHT22;52192;52.002;5.956;2023-08-08T02:40:29;16.70;83.00
39045;DHT22;52192;52.002;5.956;2023-08-08T02:42:54;16.70;83.10
39045;DHT22;52192;52.002;5.956;2023-08-08T02:45:20;16.60;83.10
39045;DHT22;52192;52.002;5.956;2023-08-08T02:47:46;16.60;83.20
39045;DHT22;52192;52.002;5.956;2023-08-08T02:50:11;16.50;83.10
39045;DHT22;52192;52.002;5.956;2023-08-08T02:52:37;16.60;83.10
39045;DHT22;52192;52.002;5.956;2023-08-08T02:55:03;16.60;83.20
39045;DHT22;52192;52.002;5.956;2023-08-08T02:57:29;16.60;83.20
39045;DHT22;52192;52.002;5.956;2023-08-08T02:59:54;16.60;83.10
39045;DHT22;52192;52.002;5.956;2023-08-08T03:02:20;16.50;83.00
39045;DHT22;52192;52.002;5.956;2023-08-08T03:04:45;16.60;83.10
39045;DHT22;52192;52.002;5.956;2023-08-08T03:07:11;16.50;83.00
39045;DHT22;52192;52.002;5.956;2023-08-08T03:09:37;16.50;83.10
39045;DHT22;52192;52.002;5.956;2023-08-08T03:12:03;16.50;83.20
39045;DHT22;52192;52.002;5.956;2023-08-08T03:14:29;16.50;83.20
39045;DHT22;52192;52.002;5.956;2023-08-08T03:16:54;16.50;83.20
39045;DHT22;52192;52.002;5.956;2023-08-08T03:19:20;16.50;83.30
39045;DHT22;52192;52.002;5.956;2023-08-08T03:21:46;16.40;83.40
39045;DHT22;52192;52.002;5.956;2023-08-08T03:24:12;16.40;83.50
39045;DHT22;52192;52.002;5.956;2023-08-08T03:26:37;16.40;83.50
39045;DHT22;52192;52.002;5.956;2023-08-08T03:29:03;16.40;83.80
39045;DHT22;52192;52.002;5.956;2023-08-08T03:31:29;16.40;83.90
39045;DHT22;52192;52.002;5.956;2023-08-08T03:33:54;16.40;84.10
39045;DHT22;52192;52.002;5.956;2023-08-08T03:36:20;16.40;84.20
39045;DHT22;52192;52.002;5.956;2023-08-08T03:38:48;16.40;84.30
39045;DHT22;52192;52.002;5.956;2023-08-08T03:41:15;16.40;84.20
39045;DHT22;52192;52.002;5.956;2023-08-08T03:43:41;16.40;85.00
39045;DHT22;52192;52.002;5.956;2023-08-08T03:46:07;16.40;84.30
39045;DHT22;52192;52.002;5.956;2023-08-08T03:48:32;16.50;84.50
39045;DHT22;52192;52.002;5.956;2023-08-08T03:50:58;16.40;84.80
39045;DHT22;52192;52.002;5.956;2023-08-08T03:53:23;16.40;84.80
39045;DHT22;52192;52.002;5.956;2023-08-08T03:55:49;16.40;84.80
39045;DHT22;52192;52.002;5.956;2023-08-08T03:58:15;16.40;84.90
39045;DHT22;52192;52.002;5.956;2023-08-08T04:00:42;16.50;85.00
39045;DHT22;52192;52.002;5.956;2023-08-08T04:03:13;16.50;84.90
39045;DHT22;52192;52.002;5.956;2023-08-08T04:05:47;16.50;85.10
39045;DHT22;52192;52.002;5.956;2023-08-08T04:08:16;16.40;85.10
39045;DHT22;52192;52.002;5.956;2023-08-08T04:10:43;16.40;85.30
39045;DHT22;52192;52.002;5.956;2023-08-08T04:13:09;16.40;85.40
39045;DHT22;52192;52.002;5.956;2023-08-08T04:15:35;16.50;85.40
39045;DHT22;52192;52.002;5.956;2023-08-08T04:18:01;16.40;85.50
39045;DHT22;52192;52.002;5.956;2023-08-08T04:20:26;16.40;85.50
39045;DHT22;52192;52.002;5.956;2023-08-08T04:22:52;16.40;85.70
39045;DHT22;52192;52.002;5.956;2023-08-08T04:25:18;16.40;85.70
39045;DHT22;52192;52.002;5.956;2023-08-08T04:27:44;16.40;85.60
39045;DHT22;52192;52.002;5.956;2023-08-08T04:30:10;16.40;85.70
39045;DHT22;52192;52.002;5.956;2023-08-08T04:32:36;16.40;85.80
39045;DHT22;52192;52.002;5.956;2023-08-08T04:35:02;16.30;85.80
39045;DHT22;52192;52.002;5.956;2023-08-08T04:37:27;16.40;85.80
39045;DHT22;52192;52.002;5.956;2023-08-08T04:39:53;16.40;85.80
39045;DHT22;52192;52.002;5.956;2023-08-08T04:42:19;16.40;85.70
39045;DHT22;52192;52.002;5.956;2023-08-08T04:44:44;16.50;85.60
39045;DHT22;52192;52.002;5.956;2023-08-08T04:47:10;16.50;85.50
39045;DHT22;52192;52.002;5.956;2023-08-08T04:49:35;16.40;85.60
39045;DHT22;52192;52.002;5.956;2023-08-08T04:52:01;16.40;85.60
39045;DHT22;52192;52.002;5.956;2023-08-08T04:54:27;16.40;85.60
39045;DHT22;52192;52.002;5.956;2023-08-08T04:56:52;16.50;85.80
39045;DHT22;52192;52.002;5.956;2023-08-08T04:59:18;16.40;85.80
39045;DHT22;52192;52.002;5.956;2023-08-08T05:01:44;16.40;85.70
39045;DHT22;52192;52.002;5.956;2023-08-08T05:04:09;16.40;85.80
39045;DHT22;52192;52.002;5.956;2023-08-08T05:06:35;16.40;85.90
39045;DHT22;52192;52.002;5.956;2023-08-08T05:09:01;16.40;86.00
39045;DHT22;52192;52.002;5.956;2023-08-08T05:11:26;16.40;86.00
39045;DHT22;52192;52.002;5.956;2023-08-08T05:13:52;16.40;86.00
39045;DHT22;52192;52.002;5.956;2023-08-08T05:16:18;16.40;86.00
39045;DHT22;52192;52.002;5.956;2023-08-08T05:18:44;16.40;86.20
39045;DHT22;52192;52.002;5.956;2023-08-08T05:21:10;16.40;86.30
39045;DHT22;52192;52.002;5.956;2023-08-08T05:23:36;16.40;86.30
39045;DHT22;52192;52.002;5.956;2023-08-08T05:26:02;16.40;86.30
39045;DHT22;52192;52.002;5.956;2023-08-08T05:28:28;16.50;86.40
39045;DHT22;52192;52.002;5.956;2023-08-08T05:30:54;16.50;86.30
39045;DHT22;52192;52.002;5.956;2023-08-08T05:33:21;16.60;86.30
39045;DHT22;52192;52.002;5.956;2023-08-08T05:35:47;16.60;86.40
39045;DHT22;52192;52.002;5.956;2023-08-08T05:38:13;16.60;86.60
39045;DHT22;52192;52.002;5.956;2023-08-08T05:40:39;16.60;86.60
39045;DHT22;52192;52.002;5.956;2023-08-08T05:43:04;16.60;86.60
39045;DHT22;52192;52.002;5.956;2023-08-08T05:45:30;16.60;86.60
39045;DHT22;52192;52.002;5.956;2023-08-08T05:47:57;16.70;86.40
39045;DHT22;52192;52.002;5.956;2023-08-08T05:50:22;16.70;86.30
39045;DHT22;52192;52.002;5.956;2023-08-08T05:52:48;16.70;86.30
39045;DHT22;52192;52.002;5.956;2023-08-08T05:55:14;16.80;86.40
39045;DHT22;52192;52.002;5.956;2023-08-08T05:57:39;16.80;86.30
39045;DHT22;52192;52.002;5.956;2023-08-08T06:00:06;16.80;86.20
39045;DHT22;52192;52.002;5.956;2023-08-08T06:02:34;16.90;86.10
39045;DHT22;52192;52.002;5.956;2023-08-08T06:04:59;16.90;86.00
39045;DHT22;52192;52.002;5.956;2023-08-08T06:07:25;16.90;86.00
39045;DHT22;52192;52.002;5.956;2023-08-08T06:09:50;17.00;86.00
39045;DHT22;52192;52.002;5.956;2023-08-08T06:12:16;17.00;85.90
39045;DHT22;52192;52.002;5.956;2023-08-08T06:14:42;17.00;86.00
39045;DHT22;52192;52.002;5.956;2023-08-08T06:17:08;17.00;85.90
39045;DHT22;52192;52.002;5.956;2023-08-08T06:19:34;17.00;85.90
39045;DHT22;52192;52.002;5.956;2023-08-08T06:21:59;17.00;85.90
39045;DHT22;52192;52.002;5.956;2023-08-08T06:24:25;17.10;85.90
39045;DHT22;52192;52.002;5.956;2023-08-08T06:26:51;17.10;85.90
39045;DHT22;52192;52.002;5.956;2023-08-08T06:29:16;17.20;85.80
39045;DHT22;52192;52.002;5.956;2023-08-08T06:31:42;17.20;85.60
39045;DHT22;52192;52.002;5.956;2023-08-08T06:34:08;17.20;85.50
39045;DHT22;52192;52.002;5.956;2023-08-08T06:36:34;17.30;85.60
39045;DHT22;52192;52.002;5.956;2023-08-08T06:39:00;17.30;85.50
39045;DHT22;52192;52.002;5.956;2023-08-08T06:41:25;17.30;85.40
39045;DHT22;52192;52.002;5.956;2023-08-08T06:43:51;17.30;85.10
39045;DHT22;52192;52.002;5.956;2023-08-08T06:46:17;17.30;85.00
39045;DHT22;52192;52.002;5.956;2023-08-08T06:48:46;17.30;85.10
39045;DHT22;52192;52.002;5.956;2023-08-08T06:51:12;17.40;84.90
39045;DHT22;52192;52.002;5.956;2023-08-08T06:53:38;17.50;84.60
39045;DHT22;52192;52.002;5.956;2023-08-08T06:56:04;17.60;84.30
39045;DHT22;52192;52.002;5.956;2023-08-08T06:58:29;17.60;84.20
39045;DHT22;52192;52.002;5.956;2023-08-08T07:00:55;17.70;84.00
39045;DHT22;52192;52.002;5.956;2023-08-08T07:03:21;17.80;83.90
39045;DHT22;52192;52.002;5.956;2023-08-08T07:05:47;17.90;83.70
39045;DHT22;52192;52.002;5.956;2023-08-08T07:08:18;17.90;83.40
39045;DHT22;52192;52.002;5.956;2023-08-08T07:10:44;18.00;83.20
39045;DHT22;52192;52.002;5.956;2023-08-08T07:13:09;18.10;82.70
39045;DHT22;52192;52.002;5.956;2023-08-08T07:15:35;18.10;82.40
39045;DHT22;52192;52.002;5.956;2023-08-08T07:18:01;18.20;82.30
39045;DHT22;52192;52.002;5.956;2023-08-08T07:20:26;18.20;82.10
39045;DHT22;52192;52.002;5.956;2023-08-08T07:22:53;18.30;81.90
39045;DHT22;52192;52.002;5.956;2023-08-08T07:25:18;18.30;81.40
39045;DHT22;52192;52.002;5.956;2023-08-08T07:27:44;18.40;79.90
39045;DHT22;52192;52.002;5.956;2023-08-08T07:30:10;18.40;79.90
39045;DHT22;52192;52.002;5.956;2023-08-08T07:32:37;18.40;79.40
39045;DHT22;52192;52.002;5.956;2023-08-08T07:35:03;18.50;78.50
39045;DHT22;52192;52.002;5.956;2023-08-08T07:37:31;18.50;78.20
39045;DHT22;52192;52.002;5.956;2023-08-08T07:39:58;18.50;77.10
39045;DHT22;52192;52.002;5.956;2023-08-08T07:42:23;18.60;77.20
39045;DHT22;52192;52.002;5.956;2023-08-08T07:44:49;18.70;76.50
39045;DHT22;52192;52.002;5.956;2023-08-08T07:47:15;18.70;76.50
39045;DHT22;52192;52.002;5.956;2023-08-08T07:49:41;18.80;76.70
39045;DHT22;52192;52.002;5.956;2023-08-08T07:52:07;18.80;75.30
39045;DHT22;52192;52.002;5.956;2023-08-08T07:54:33;18.80;74.70
39045;DHT22;52192;52.002;5.956;2023-08-08T07:56:59;18.80;74.90
39045;DHT22;52192;52.002;5.956;2023-08-08T07:59:25;18.90;74.70
39045;DHT22;52192;52.002;5.956;2023-08-08T08:01:51;18.90;73.30
39045;DHT22;52192;52.002;5.956;2023-08-08T08:04:16;19.00;73.40
39045;DHT22;52192;52.002;5.956;2023-08-08T08:06:42;19.10;73.20
39045;DHT22;52192;52.002;5.956;2023-08-08T08:09:08;19.20;72.80
39045;DHT22;52192;52.002;5.956;2023-08-08T08:11:33;19.30;73.20
39045;DHT22;52192;52.002;5.956;2023-08-08T08:13:59;19.30;71.30
39045;DHT22;52192;52.002;5.956;2023-08-08T08:16:25;19.30;69.70
39045;DHT22;52192;52.002;5.956;2023-08-08T08:18:50;19.20;69.70
39045;DHT22;52192;52.002;5.956;2023-08-08T08:21:16;19.20;69.70
39045;DHT22;52192;52.002;5.956;2023-08-08T08:23:43;19.20;69.80
39045;DHT22;52192;52.002;5.956;2023-08-08T08:26:10;19.20;69.40
39045;DHT22;52192;52.002;5.956;2023-08-08T08:28:35;19.30;69.80
39045;DHT22;52192;52.002;5.956;2023-08-08T08:31:05;19.30;69.30
39045;DHT22;52192;52.002;5.956;2023-08-08T08:33:31;19.40;68.30
39045;DHT22;52192;52.002;5.956;2023-08-08T08:35:57;19.50;68.50
39045;DHT22;52192;52.002;5.956;2023-08-08T08:38:22;19.60;67.40
39045;DHT22;52192;52.002;5.956;2023-08-08T08:40:49;19.60;67.40
39045;DHT22;52192;52.002;5.956;2023-08-08T08:43:15;19.60;67.70
39045;DHT22;52192;52.002;5.956;2023-08-08T08:45:43;19.70;67.60
39045;DHT22;52192;52.002;5.956;2023-08-08T08:48:15;19.80;67.70
39045;DHT22;52192;52.002;5.956;2023-08-08T08:50:42;19.80;67.50
39045;DHT22;52192;52.002;5.956;2023-08-08T08:53:10;19.70;67.40
39045;DHT22;52192;52.002;5.956;2023-08-08T08:55:36;19.80;67.40
39045;DHT22;52192;52.002;5.956;2023-08-08T08:58:03;19.80;66.90
39045;DHT22;52192;52.002;5.956;2023-08-08T09:00:30;19.80;66.40
39045;DHT22;52192;52.002;5.956;2023-08-08T09:02:56;19.70;66.30
39045;DHT22;52192;52.002;5.956;2023-08-08T09:05:24;19.80;65.50
39045;DHT22;52192;52.002;5.956;2023-08-08T09:07:50;19.70;65.80
39045;DHT22;52192;52.002;5.956;2023-08-08T09:10:17;19.70;66.40
39045;DHT22;52192;52.002;5.956;2023-08-08T09:12:44;19.80;66.70
39045;DHT22;52192;52.002;5.956;2023-08-08T09:15:10;19.90;67.00
39045;DHT22;52192;52.002;5.956;2023-08-08T09:17:36;20.00;66.30
39045;DHT22;52192;52.002;5.956;2023-08-08T09:20:06;20.00;66.00
39045;DHT22;52192;52.002;5.956;2023-08-08T09:22:32;19.90;65.00
39045;DHT22;52192;52.002;5.956;2023-08-08T09:24:58;19.90;64.50
39045;DHT22;52192;52.002;5.956;2023-08-08T09:27:24;20.10;64.50
39045;DHT22;52192;52.002;5.956;2023-08-08T09:29:50;20.20;63.90
39045;DHT22;52192;52.002;5.956;2023-08-08T09:32:16;20.20;63.50
39045;DHT22;52192;52.002;5.956;2023-08-08T09:34:43;20.30;63.50
39045;DHT22;52192;52.002;5.956;2023-08-08T09:37:09;20.30;63.60
39045;DHT22;52192;52.002;5.956;2023-08-08T09:39:36;20.20;63.30
39045;DHT22;52192;52.002;5.956;2023-08-08T09:42:03;20.20;62.60
39045;DHT22;52192;52.002;5.956;2023-08-08T09:44:30;20.10;62.00
39045;DHT22;52192;52.002;5.956;2023-08-08T09:46:57;20.00;63.00
39045;DHT22;52192;52.002;5.956;2023-08-08T09:49:23;20.00;62.90
39045;DHT22;52192;52.002;5.956;2023-08-08T09:51:52;20.00;62.60
39045;DHT22;52192;52.002;5.956;2023-08-08T09:54:18;20.10;61.00
39045;DHT22;52192;52.002;5.956;2023-08-08T09:56:45;20.10;60.70
39045;DHT22;52192;52.002;5.956;2023-08-08T09:59:11;20.00;61.10
39045;DHT22;52192;52.002;5.956;2023-08-08T10:01:39;20.10;60.00
39045;DHT22;52192;52.002;5.956;2023-08-08T10:04:06;20.10;60.00
39045;DHT22;52192;52.002;5.956;2023-08-08T10:06:32;20.00;60.20
39045;DHT22;52192;52.002;5.956;2023-08-08T10:08:58;20.10;59.60
39045;DHT22;52192;52.002;5.956;2023-08-08T10:11:25;20.10;59.90
39045;DHT22;52192;52.002;5.956;2023-08-08T10:13:53;20.10;60.20
39045;DHT22;52192;52.002;5.956;2023-08-08T10:16:19;20.00;60.00
39045;DHT22;52192;52.002;5.956;2023-08-08T10:18:46;20.20;59.70
39045;DHT22;52192;52.002;5.956;2023-08-08T10:21:20;20.40;59.30
39045;DHT22;52192;52.002;5.956;2023-08-08T10:23:48;20.60;59.00
39045;DHT22;52192;52.002;5.956;2023-08-08T10:26:19;20.60;58.10
39045;DHT22;52192;52.002;5.956;2023-08-08T10:28:58;20.60;59.10
39045;DHT22;52192;52.002;5.956;2023-08-08T10:31:24;20.60;59.90
39045;DHT22;52192;52.002;5.956;2023-08-08T10:33:53;20.60;59.60
39045;DHT22;52192;52.002;5.956;2023-08-08T10:36:25;20.70;59.20
39045;DHT22;52192;52.002;5.956;2023-08-08T10:38:52;20.70;59.50
39045;DHT22;52192;52.002;5.956;2023-08-08T10:41:20;20.80;58.70
39045;DHT22;52192;52.002;5.956;2023-08-08T10:44:08;20.80;57.60
39045;DHT22;52192;52.002;5.956;2023-08-08T10:46:34;20.80;58.80
39045;DHT22;52192;52.002;5.956;2023-08-08T10:49:01;20.80;59.00
39045;DHT22;52192;52.002;5.956;2023-08-08T10:51:38;21.00;59.50
39045;DHT22;52192;52.002;5.956;2023-08-08T10:54:16;21.20;58.70
39045;DHT22;52192;52.002;5.956;2023-08-08T10:56:48;21.60;58.20
39045;DHT22;52192;52.002;5.956;2023-08-08T10:59:27;21.90;56.80
39045;DHT22;52192;52.002;5.956;2023-08-08T11:01:55;21.90;56.40
39045;DHT22;52192;52.002;5.956;2023-08-08T11:04:23;21.70;57.30
39045;DHT22;52192;52.002;5.956;2023-08-08T11:06:52;21.60;57.20
39045;DHT22;52192;52.002;5.956;2023-08-08T11:09:19;21.50;56.80
39045;DHT22;52192;52.002;5.956;2023-08-08T11:11:45;21.40;57.10
39045;DHT22;52192;52.002;5.956;2023-08-08T11:14:14;21.40;57.40
39045;DHT22;52192;52.002;5.956;2023-08-08T11:16:41;21.30;57.00
39045;DHT22;52192;52.002;5.956;2023-08-08T11:19:08;21.20;57.10
39045;DHT22;52192;52.002;5.956;2023-08-08T11:21:35;21.10;57.60
39045;DHT22;52192;52.002;5.956;2023-08-08T11:24:05;21.20;57.20
39045;DHT22;52192;52.002;5.956;2023-08-08T11:26:35;21.10;57.70
39045;DHT22;52192;52.002;5.956;2023-08-08T11:29:02;21.10;57.80
39045;DHT22;52192;52.002;5.956;2023-08-08T11:31:28;21.10;57.70
39045;DHT22;52192;52.002;5.956;2023-08-08T11:33:55;21.10;57.30
39045;DHT22;52192;52.002;5.956;2023-08-08T11:36:22;20.90;57.90
39045;DHT22;52192;52.002;5.956;2023-08-08T11:38:49;20.80;57.80
39045;DHT22;52192;52.002;5.956;2023-08-08T11:41:18;20.80;57.40
39045;DHT22;52192;52.002;5.956;2023-08-08T11:43:45;20.80;57.80
39045;DHT22;52192;52.002;5.956;2023-08-08T11:46:15;20.80;58.10
39045;DHT22;52192;52.002;5.956;2023-08-08T11:48:41;20.90;57.70
39045;DHT22;52192;52.002;5.956;2023-08-08T11:51:08;21.00;56.90
39045;DHT22;52192;52.002;5.956;2023-08-08T11:53:34;21.00;57.00
39045;DHT22;52192;52.002;5.956;2023-08-08T11:56:01;21.20;56.90
39045;DHT22;52192;52.002;5.956;2023-08-08T11:58:29;21.50;56.70
39045;DHT22;52192;52.002;5.956;2023-08-08T12:00:56;21.60;55.30
39045;DHT22;52192;52.002;5.956;2023-08-08T12:03:24;21.60;55.90
39045;DHT22;52192;52.002;5.956;2023-08-08T12:05:51;21.60;55.90
39045;DHT22;52192;52.002;5.956;2023-08-08T12:08:20;21.70;55.60
39045;DHT22;52192;52.002;5.956;2023-08-08T12:10:49;21.90;55.20
39045;DHT22;52192;52.002;5.956;2023-08-08T12:13:21;22.10;55.40
39045;DHT22;52192;52.002;5.956;2023-08-08T12:15:47;22.10;55.40
39045;DHT22;52192;52.002;5.956;2023-08-08T12:18:16;22.10;54.80
39045;DHT22;52192;52.002;5.956;2023-08-08T12:20:43;22.00;55.20
39045;DHT22;52192;52.002;5.956;2023-08-08T12:23:09;22.10;55.20
39045;DHT22;52192;52.002;5.956;2023-08-08T12:25:34;22.30;54.40
39045;DHT22;52192;52.002;5.956;2023-08-08T12:28:01;22.30;54.50
39045;DHT22;52192;52.002;5.956;2023-08-08T12:30:27;22.30;54.40
39045;DHT22;52192;52.002;5.956;2023-08-08T12:32:53;22.10;53.80
39045;DHT22;52192;52.002;5.956;2023-08-08T12:35:19;22.20;54.70
39045;DHT22;52192;52.002;5.956;2023-08-08T12:37:46;22.40;54.50
39045;DHT22;52192;52.002;5.956;2023-08-08T12:40:12;22.60;54.50
39045;DHT22;52192;52.002;5.956;2023-08-08T12:42:38;22.80;53.70
39045;DHT22;52192;52.002;5.956;2023-08-08T12:45:05;23.10;54.10
39045;DHT22;52192;52.002;5.956;2023-08-08T12:47:31;23.40;53.70
39045;DHT22;52192;52.002;5.956;2023-08-08T12:49:57;23.60;52.10
39045;DHT22;52192;52.002;5.956;2023-08-08T12:52:23;23.50;52.10
39045;DHT22;52192;52.002;5.956;2023-08-08T12:54:49;23.30;51.80
39045;DHT22;52192;52.002;5.956;2023-08-08T12:57:15;23.10;52.70
39045;DHT22;52192;52.002;5.956;2023-08-08T12:59:40;23.00;53.20
39045;DHT22;52192;52.002;5.956;2023-08-08T13:02:07;22.80;53.10
39045;DHT22;52192;52.002;5.956;2023-08-08T13:04:33;22.70;54.10
39045;DHT22;52192;52.002;5.956;2023-08-08T13:06:59;23.00;54.10
39045;DHT22;52192;52.002;5.956;2023-08-08T13:09:25;23.30;54.00
39045;DHT22;52192;52.002;5.956;2023-08-08T13:11:50;23.30;53.80
39045;DHT22;52192;52.002;5.956;2023-08-08T13:14:16;23.10;52.90
39045;DHT22;52192;52.002;5.956;2023-08-08T13:16:42;22.80;53.60
39045;DHT22;52192;52.002;5.956;2023-08-08T13:19:07;22.50;53.60
39045;DHT22;52192;52.002;5.956;2023-08-08T13:21:33;22.30;53.60
39045;DHT22;52192;52.002;5.956;2023-08-08T13:23:59;22.10;53.80
39045;DHT22;52192;52.002;5.956;2023-08-08T13:26:25;21.90;54.40
39045;DHT22;52192;52.002;5.956;2023-08-08T13:28:51;21.70;55.00
39045;DHT22;52192;52.002;5.956;2023-08-08T13:31:17;21.50;54.80
39045;DHT22;52192;52.002;5.956;2023-08-08T13:33:42;21.50;55.40
39045;DHT22;52192;52.002;5.956;2023-08-08T13:36:08;21.50;55.40
39045;DHT22;52192;52.002;5.956;2023-08-08T13:38:35;21.50;55.80
39045;DHT22;52192;52.002;5.956;2023-08-08T13:41:01;21.70;56.10
39045;DHT22;52192;52.002;5.956;2023-08-08T13:43:26;21.90;55.80
39045;DHT22;52192;52.002;5.956;2023-08-08T13:45:52;22.10;56.20
39045;DHT22;52192;52.002;5.956;2023-08-08T13:48:18;22.40;54.70
39045;DHT22;52192;52.002;5.956;2023-08-08T13:50:44;22.60;54.20
39045;DHT22;52192;52.002;5.956;2023-08-08T13:53:10;22.70;54.20
39045;DHT22;52192;52.002;5.956;2023-08-08T13:55:35;22.60;54.00
39045;DHT22;52192;52.002;5.956;2023-08-08T13:58:09;22.40;54.50
39045;DHT22;52192;52.002;5.956;2023-08-08T14:00:35;22.20;54.70
39045;DHT22;52192;52.002;5.956;2023-08-08T14:03:02;22.00;55.50
39045;DHT22;52192;52.002;5.956;2023-08-08T14:05:28;21.80;55.10
39045;DHT22;52192;52.002;5.956;2023-08-08T14:07:54;21.70;55.70
39045;DHT22;52192;52.002;5.956;2023-08-08T14:10:20;21.50;55.90
39045;DHT22;52192;52.002;5.956;2023-08-08T14:12:46;21.40;56.00
39045;DHT22;52192;52.002;5.956;2023-08-08T14:15:11;21.30;56.60
39045;DHT22;52192;52.002;5.956;2023-08-08T14:17:37;21.40;57.20
39045;DHT22;52192;52.002;5.956;2023-08-08T14:20:03;21.80;57.00
39045;DHT22;52192;52.002;5.956;2023-08-08T14:22:30;22.00;56.60
39045;DHT22;52192;52.002;5.956;2023-08-08T14:24:56;22.10;56.00
39045;DHT22;52192;52.002;5.956;2023-08-08T14:27:22;22.10;56.00
39045;DHT22;52192;52.002;5.956;2023-08-08T14:29:48;22.10;56.50
39045;DHT22;52192;52.002;5.956;2023-08-08T14:32:13;21.80;55.90
39045;DHT22;52192;52.002;5.956;2023-08-08T14:34:39;21.70;56.60
39045;DHT22;52192;52.002;5.956;2023-08-08T14:37:05;21.60;56.30
39045;DHT22;52192;52.002;5.956;2023-08-08T14:39:31;21.60;57.00
39045;DHT22;52192;52.002;5.956;2023-08-08T14:41:57;21.60;57.10
39045;DHT22;52192;52.002;5.956;2023-08-08T14:44:23;21.70;57.00
39045;DHT22;52192;52.002;5.956;2023-08-08T14:46:49;21.80;56.70
39045;DHT22;52192;52.002;5.956;2023-08-08T14:49:15;21.80;56.50
39045;DHT22;52192;52.002;5.956;2023-08-08T14:51:40;22.00;56.40
39045;DHT22;52192;52.002;5.956;2023-08-08T14:54:06;22.10;56.20
39045;DHT22;52192;52.002;5.956;2023-08-08T14:56:32;22.20;56.10
39045;DHT22;52192;52.002;5.956;2023-08-08T14:58:57;22.20;55.80
39045;DHT22;52192;52.002;5.956;2023-08-08T15:01:23;22.40;55.90
39045;DHT22;52192;52.002;5.956;2023-08-08T15:03:50;22.70;55.40
39045;DHT22;52192;52.002;5.956;2023-08-08T15:06:16;23.00;54.30
39045;DHT22;52192;52.002;5.956;2023-08-08T15:08:42;23.00;54.30
39045;DHT22;52192;52.002;5.956;2023-08-08T15:11:08;22.80;54.10
39045;DHT22;52192;52.002;5.956;2023-08-08T15:13:34;22.80;54.90
39045;DHT22;52192;52.002;5.956;2023-08-08T15:16:00;23.10;54.90
39045;DHT22;52192;52.002;5.956;2023-08-08T15:18:26;23.40;53.90
39045;DHT22;52192;52.002;5.956;2023-08-08T15:20:51;23.40;53.10
39045;DHT22;52192;52.002;5.956;2023-08-08T15:23:17;23.20;53.10
39045;DHT22;52192;52.002;5.956;2023-08-08T15:25:43;23.10;52.60